サンフアン の空港の天気 - METARとTAF

ルイス・ムニョス・マリン国際空港 ( TJSJ / SJU ) - プエルトリコ サンフアン
飛行場実況気象(Metar)
観測時間08/13 23:56 AST (08/14 03:56 UTC)
風向・風速東 4m/s
視程10km以上
天気現象
少しの雲 雲底高度 640m
少しの雲 雲底高度 1100m
気温28.3℃
湿度85%
気圧1014.1hPa
METARTJSJ 140356Z 09008KT 10SM FEW021 FEW036 28/26 A2995 RMK AO2 SLP141 T02830256 403220256
過去の天気等 Google飛行場航空写真 Wunderground天気予報

過去48時間のMETAR

飛行場予報(TAF)
発表時間: 8/13 19:40 AST (8/13 23:40 UTC)
予報対象時間: 13日20時 AST ~ 14日20時 AST
風向・風速東 5m/s
視程10km以上
天気現象周辺でしゅう雨
少しの雲 雲底高度 910m
全天の4割程度の雲 雲底高度 1520m
14日9時 AST から
風向・風速東 9m/s
視程10km以上
少しの雲 雲底高度 910m
全天の4割程度の雲 雲底高度 1520m
14日19時 AST から
風向・風速東北東 5m/s
視程10km以上
少しの雲 雲底高度 910m
TJSJ 132340Z 1400/1424 08009KT P6SM VCSH FEW030 SCT050
FM141300 08017KT P6SM FEW030 SCT050
FM142300 07010KT P6SM FEW030